カンゲルルススアーク の空港の天気 - METARとTAF

カンゲルルススアーク空港 ( BGSF / SFJ ) - グリーンランド カンゲルルススアーク
飛行場実況気象(Metar)
観測時間11/27 05:50 WGT (11/27 08:50 UTC)
風向・風速北北東 2m/s
視程-
天気現象
全天の8割程度の雲 雲底高度 2440m
全天の8割程度の雲 雲底高度 3050m
気温-16℃
湿度85%
気圧1008hPa
METARBGSF 270850Z AUTO 02004KT 9999NDV BKN080/// BKN100/// M16/M18 Q1008
過去の天気等 Google飛行場航空写真 Wunderground天気予報

過去48時間のMETAR

飛行場予報(TAF)
発表時間: 11/27 05:30 WGT (11/27 08:30 UTC)
予報対象時間: 27日5時 WGT ~ 27日17時 WGT
風向・風速北北東 4m/s
視程10km以上
少しの雲 雲底高度 180m
全天の8割程度の雲 雲底高度 2740m
27日5時 WGT から 確率 40% で
全天の8割程度の雲 雲底高度 150m
27日10時 WGT ~ 27日13時 WGT に徐々に
少しの雲 雲底高度 610m
全天の8割程度の雲 雲底高度 2130m
27日13時 WGT ~ 27日17時 WGT に一時的に
全天の8割程度の雲 雲底高度 610m
TAF AMD BGSF 270830Z 2708/2720 03007KT 9999 FEW006 BKN090
PROB40 2708/2713 BKN005
BECMG 2713/2716 FEW020 BKN070
TEMPO 2716/2720 BKN020